Scheveningen, Netherlands
Current Conditions -  °F | °C
As of 4:55 AM on Wednesday 26 Nov 2014 (Local Time) from EHRD Reporting Station
Clear Clear  
Wind Chill: 32°   Ceiling: Unl
Heat Index: 39°   Visibility: 6mi
Dew Point: 36°   Wind: 12mph
Humidity: 87%   Direction: 90°E
Pressure: 30"   Gusts: NA
Location:  52.1°N, 4.28°E
Report Text: EHRD 260355Z AUTO 09010KT 060V120 9000 NCD 04/02 Q1016 NOSIG
Loading
Personal Weather Stations






























Interactive Weather Map New forecast layout! Learn more

10-Day Weather Forecast

Advertisements
Track Severe Weather on mobile